XBRLQ MMCU-XAMT
Flight info
| Callsign | XBRLQ |
|---|---|
| Flight time | N/A |
| Altitude | 8500 |
| Route | DCT XAMT |
| Aircraft | C172/L-S/C |
Departure
| Time | 2026-04-22 22:29 |
|---|---|
| Airport | General Roberto Fierro Villalobos International Airport (MMCU) |
Arrival
| Time | N/A |
|---|---|
| Airport | XAMT |
| Time | Latitude | Longitude | Altitude | Speed | Heading |
|---|---|---|---|---|---|
| 2026-04-22 22:19 | 28.70220 | -105.96877 | 4441 ft | 0 kts | 193° |
| 2026-04-22 22:24 | 28.70190 | -105.96879 | 4441 ft | 10 kts | 152° |
| 2026-04-22 22:24 | 28.70199 | -105.96806 | 4441 ft | 12 kts | 16° |
| 2026-04-22 22:24 | 28.70261 | -105.96743 | 4439 ft | 13 kts | 30° |
| 2026-04-22 22:25 | 28.70352 | -105.96726 | 4436 ft | 14 kts | 10° |
| 2026-04-22 22:25 | 28.70435 | -105.96670 | 4434 ft | 16 kts | 77° |
| 2026-04-22 22:25 | 28.70458 | -105.96548 | 4434 ft | 16 kts | 52° |
| 2026-04-22 22:25 | 28.70566 | -105.96516 | 4432 ft | 17 kts | 7° |
| 2026-04-22 22:26 | 28.70692 | -105.96488 | 4428 ft | 20 kts | 11° |
| 2026-04-22 22:26 | 28.70834 | -105.96456 | 4425 ft | 22 kts | 11° |
| 2026-04-22 22:26 | 28.70987 | -105.96425 | 4422 ft | 23 kts | 8° |
| 2026-04-22 22:26 | 28.71147 | -105.96386 | 4417 ft | 24 kts | 11° |
| 2026-04-22 22:27 | 28.71289 | -105.96349 | 4413 ft | 17 kts | 24° |
| 2026-04-22 22:27 | 28.71322 | -105.96356 | 4411 ft | 2 kts | 197° |
| 2026-04-22 22:27 | 28.71293 | -105.96358 | 4412 ft | 0 kts | 183° |
| 2026-04-22 22:27 | 28.71272 | -105.96361 | 4413 ft | 16 kts | 189° |
| 2026-04-22 22:28 | 28.71020 | -105.96416 | 4421 ft | 56 kts | 190° |
| 2026-04-22 22:28 | 28.70528 | -105.96520 | 4461 ft | 82 kts | 191° |
| 2026-04-22 22:28 | 28.69953 | -105.96649 | 4599 ft | 87 kts | 192° |
| 2026-04-22 22:28 | 28.69356 | -105.96784 | 4790 ft | 85 kts | 193° |
| 2026-04-22 22:29 | 28.68779 | -105.96911 | 4946 ft | 88 kts | 193° |
| 2026-04-22 22:29 | 28.68283 | -105.97252 | 5144 ft | 86 kts | 243° |
| 2026-04-22 22:29 | 28.68261 | -105.97950 | 5233 ft | 96 kts | 277° |
| 2026-04-22 22:29 | 28.68346 | -105.98730 | 5336 ft | 102 kts | 275° |
| 2026-04-22 22:30 | 28.68425 | -105.99524 | 5459 ft | 101 kts | 276° |
| 2026-04-22 22:30 | 28.68521 | -106.00329 | 5604 ft | 104 kts | 277° |
| 2026-04-22 22:30 | 28.68602 | -106.01144 | 5830 ft | 102 kts | 275° |
| 2026-04-22 22:30 | 28.68661 | -106.01986 | 5945 ft | 109 kts | 274° |
| 2026-04-22 22:31 | 28.68722 | -106.02839 | 6060 ft | 109 kts | 274° |
| 2026-04-22 22:31 | 28.68784 | -106.03693 | 6176 ft | 106 kts | 275° |
| 2026-04-22 22:31 | 28.68843 | -106.04519 | 6298 ft | 103 kts | 274° |
| 2026-04-22 22:31 | 28.68895 | -106.05333 | 6421 ft | 102 kts | 274° |
| 2026-04-22 22:32 | 28.68990 | -106.06121 | 6544 ft | 100 kts | 277° |
| 2026-04-22 22:32 | 28.69059 | -106.06646 | 6631 ft | 103 kts | 278° |
| 2026-04-22 22:32 | 28.69167 | -106.07462 | 6761 ft | 104 kts | 278° |
| 2026-04-22 22:32 | 28.69281 | -106.08303 | 6881 ft | 108 kts | 278° |
| 2026-04-22 22:33 | 28.69430 | -106.09400 | 7048 ft | 105 kts | 278° |
| 2026-04-22 22:33 | 28.69541 | -106.10213 | 7174 ft | 104 kts | 278° |
| 2026-04-22 22:33 | 28.69653 | -106.11032 | 7296 ft | 104 kts | 278° |
| 2026-04-22 22:33 | 28.69727 | -106.11583 | 7382 ft | 104 kts | 279° |
| 2026-04-22 22:34 | 28.69840 | -106.12390 | 7502 ft | 102 kts | 278° |
| 2026-04-22 22:34 | 28.69947 | -106.13175 | 7623 ft | 101 kts | 278° |
| 2026-04-22 22:34 | 28.70056 | -106.13963 | 7754 ft | 102 kts | 278° |
| 2026-04-22 22:34 | 28.70167 | -106.14764 | 7869 ft | 101 kts | 278° |
| 2026-04-22 22:35 | 28.70275 | -106.15533 | 7988 ft | 96 kts | 278° |
| 2026-04-22 22:35 | 28.70376 | -106.16284 | 8119 ft | 98 kts | 277° |
| 2026-04-22 22:35 | 28.70479 | -106.17064 | 8244 ft | 100 kts | 278° |
| 2026-04-22 22:35 | 28.70581 | -106.17837 | 8373 ft | 100 kts | 278° |
| 2026-04-22 22:36 | 28.70690 | -106.18648 | 8439 ft | 110 kts | 278° |
| 2026-04-22 22:36 | 28.70808 | -106.19525 | 8437 ft | 109 kts | 277° |
| 2026-04-22 22:36 | 28.70913 | -106.20341 | 8437 ft | 101 kts | 277° |
| 2026-04-22 22:36 | 28.71012 | -106.21111 | 8433 ft | 96 kts | 278° |
| 2026-04-22 22:37 | 28.71109 | -106.21840 | 8431 ft | 93 kts | 278° |
| 2026-04-22 22:37 | 28.71202 | -106.22571 | 8431 ft | 91 kts | 278° |
| 2026-04-22 22:37 | 28.71293 | -106.23289 | 8437 ft | 93 kts | 278° |
| 2026-04-22 22:37 | 28.71388 | -106.24020 | 8441 ft | 96 kts | 278° |
| 2026-04-22 22:38 | 28.71493 | -106.24780 | 8443 ft | 98 kts | 278° |
| 2026-04-22 22:38 | 28.71594 | -106.25555 | 8449 ft | 100 kts | 277° |
| 2026-04-22 22:38 | 28.71699 | -106.26348 | 8441 ft | 104 kts | 278° |
| 2026-04-22 22:38 | 28.71799 | -106.27148 | 8447 ft | 102 kts | 278° |
| 2026-04-22 22:39 | 28.71904 | -106.27962 | 8448 ft | 104 kts | 278° |
| 2026-04-22 22:39 | 28.71974 | -106.28767 | 8439 ft | 101 kts | 264° |
| 2026-04-22 22:39 | 28.71861 | -106.29579 | 8404 ft | 105 kts | 260° |
| 2026-04-22 22:39 | 28.71734 | -106.30399 | 8437 ft | 104 kts | 261° |
| 2026-04-22 22:40 | 28.71606 | -106.31225 | 8435 ft | 108 kts | 261° |
| 2026-04-22 22:40 | 28.71476 | -106.32057 | 8438 ft | 105 kts | 261° |
| 2026-04-22 22:40 | 28.71350 | -106.32895 | 8443 ft | 109 kts | 261° |
| 2026-04-22 22:40 | 28.71228 | -106.33730 | 8432 ft | 106 kts | 261° |
| 2026-04-22 22:41 | 28.71103 | -106.34538 | 8435 ft | 103 kts | 260° |
| 2026-04-22 22:41 | 28.70977 | -106.35353 | 8437 ft | 105 kts | 260° |
| 2026-04-22 22:41 | 28.70847 | -106.36191 | 8443 ft | 109 kts | 260° |
| 2026-04-22 22:41 | 28.70712 | -106.37061 | 8447 ft | 112 kts | 261° |
| 2026-04-22 22:42 | 28.70583 | -106.37929 | 8446 ft | 110 kts | 261° |
| 2026-04-22 22:42 | 28.70457 | -106.38773 | 8446 ft | 110 kts | 261° |
| 2026-04-22 22:42 | 28.70323 | -106.39641 | 8451 ft | 113 kts | 261° |
| 2026-04-22 22:42 | 28.70188 | -106.40529 | 8445 ft | 113 kts | 261° |
| 2026-04-22 22:43 | 28.70056 | -106.41397 | 8439 ft | 109 kts | 261° |
| 2026-04-22 22:43 | 28.69929 | -106.42238 | 8437 ft | 107 kts | 260° |
| 2026-04-22 22:43 | 28.69804 | -106.43057 | 8436 ft | 106 kts | 261° |
| 2026-04-22 22:43 | 28.69676 | -106.43883 | 8437 ft | 105 kts | 260° |
| 2026-04-22 22:44 | 28.69546 | -106.44711 | 8436 ft | 107 kts | 260° |
| 2026-04-22 22:44 | 28.69420 | -106.45542 | 8428 ft | 105 kts | 262° |
| 2026-04-22 22:44 | 28.69336 | -106.46356 | 8419 ft | 101 kts | 263° |
| 2026-04-22 22:44 | 28.69252 | -106.47151 | 8415 ft | 101 kts | 263° |
| 2026-04-22 22:45 | 28.69166 | -106.47930 | 8411 ft | 100 kts | 262° |
| 2026-04-22 22:45 | 28.69083 | -106.48715 | 8423 ft | 100 kts | 263° |
| 2026-04-22 22:45 | 28.68997 | -106.49514 | 8431 ft | 102 kts | 263° |
| 2026-04-22 22:45 | 28.68912 | -106.50319 | 8437 ft | 103 kts | 263° |
| 2026-04-22 22:46 | 28.68830 | -106.51136 | 8432 ft | 103 kts | 264° |
| 2026-04-22 22:46 | 28.68748 | -106.51928 | 8435 ft | 102 kts | 263° |
| 2026-04-22 22:46 | 28.68664 | -106.52732 | 8434 ft | 102 kts | 263° |
| 2026-04-22 22:46 | 28.68580 | -106.53539 | 8436 ft | 103 kts | 264° |
| 2026-04-22 22:47 | 28.68496 | -106.54353 | 8435 ft | 103 kts | 263° |
| 2026-04-22 22:47 | 28.68413 | -106.55161 | 8435 ft | 103 kts | 264° |
| 2026-04-22 22:47 | 28.68330 | -106.55954 | 8432 ft | 101 kts | 264° |
| 2026-04-22 22:47 | 28.68248 | -106.56747 | 8435 ft | 102 kts | 264° |
| 2026-04-22 22:48 | 28.68165 | -106.57552 | 8434 ft | 102 kts | 264° |
| 2026-04-22 22:48 | 28.68083 | -106.58361 | 8438 ft | 104 kts | 263° |
| 2026-04-22 22:48 | 28.67997 | -106.59187 | 8439 ft | 105 kts | 264° |
| 2026-04-22 22:48 | 28.67916 | -106.60014 | 8439 ft | 105 kts | 264° |
| 2026-04-22 22:49 | 28.67836 | -106.60828 | 8441 ft | 104 kts | 264° |
| 2026-04-22 22:49 | 28.67755 | -106.61655 | 8442 ft | 105 kts | 264° |
| 2026-04-22 22:49 | 28.67674 | -106.62479 | 8444 ft | 104 kts | 264° |
| 2026-04-22 22:49 | 28.67593 | -106.63320 | 8442 ft | 107 kts | 263° |
| 2026-04-22 22:50 | 28.67508 | -106.64154 | 8445 ft | 108 kts | 264° |
| 2026-04-22 22:50 | 28.67425 | -106.65004 | 8443 ft | 107 kts | 263° |
| 2026-04-22 22:50 | 28.67340 | -106.65834 | 8440 ft | 104 kts | 263° |
| 2026-04-22 22:50 | 28.67258 | -106.66646 | 8436 ft | 102 kts | 263° |
| 2026-04-22 22:51 | 28.67180 | -106.67435 | 8432 ft | 101 kts | 264° |
| 2026-04-22 22:51 | 28.67102 | -106.68223 | 8433 ft | 99 kts | 264° |
| 2026-04-22 22:51 | 28.67024 | -106.69003 | 8433 ft | 99 kts | 264° |
| 2026-04-22 22:51 | 28.66944 | -106.69794 | 8433 ft | 102 kts | 263° |
| 2026-04-22 22:52 | 28.66864 | -106.70599 | 8435 ft | 103 kts | 263° |
| 2026-04-22 22:52 | 28.66784 | -106.71406 | 8439 ft | 102 kts | 264° |
| 2026-04-22 22:52 | 28.66705 | -106.72221 | 8437 ft | 103 kts | 264° |
| 2026-04-22 22:52 | 28.66540 | -106.73008 | 8431 ft | 106 kts | 249° |
| 2026-04-22 22:53 | 28.66237 | -106.73764 | 8485 ft | 102 kts | 246° |
| 2026-04-22 22:53 | 28.65960 | -106.74526 | 8474 ft | 105 kts | 249° |
| 2026-04-22 22:53 | 28.65699 | -106.75296 | 8418 ft | 106 kts | 249° |
| 2026-04-22 22:53 | 28.65458 | -106.76103 | 8335 ft | 110 kts | 261° |
| 2026-04-22 22:54 | 28.65401 | -106.76975 | 8339 ft | 110 kts | 266° |
| 2026-04-22 22:54 | 28.65359 | -106.77837 | 8376 ft | 110 kts | 267° |
| 2026-04-22 22:54 | 28.65320 | -106.78713 | 8398 ft | 112 kts | 266° |
| 2026-04-22 22:54 | 28.65276 | -106.79587 | 8435 ft | 109 kts | 267° |
| 2026-04-22 22:55 | 28.65232 | -106.80461 | 8432 ft | 110 kts | 267° |
| 2026-04-22 22:55 | 28.65194 | -106.81301 | 8424 ft | 102 kts | 266° |
| 2026-04-22 22:55 | 28.65107 | -106.82968 | 8182 ft | 110 kts | 266° |
| 2026-04-22 22:56 | 28.65066 | -106.83863 | 8067 ft | 116 kts | 267° |
| 2026-04-22 22:56 | 28.65000 | -106.84774 | 7920 ft | 113 kts | 263° |
| 2026-04-22 22:56 | 28.64938 | -106.85645 | 7691 ft | 109 kts | 267° |
| 2026-04-22 22:56 | 28.64903 | -106.86483 | 7474 ft | 101 kts | 267° |
| 2026-04-22 22:57 | 28.64876 | -106.87261 | 7353 ft | 97 kts | 268° |
| 2026-04-22 22:57 | 28.64849 | -106.88006 | 7308 ft | 91 kts | 269° |
| 2026-04-22 22:57 | 28.64844 | -106.88704 | 7263 ft | 88 kts | 270° |
| 2026-04-22 22:57 | 28.64905 | -106.89396 | 7204 ft | 90 kts | 295° |
| 2026-04-22 22:58 | 28.65390 | -106.89815 | 7196 ft | 91 kts | 344° |
| 2026-04-22 22:58 | 28.66023 | -106.89829 | 7207 ft | 93 kts | 0° |
| 2026-04-22 22:58 | 28.66656 | -106.89769 | 7225 ft | 91 kts | 3° |
| 2026-04-22 22:58 | 28.67164 | -106.89354 | 7231 ft | 95 kts | 70° |
| 2026-04-22 22:59 | 28.67100 | -106.88618 | 7295 ft | 95 kts | 102° |
| 2026-04-22 22:59 | 28.66945 | -106.87858 | 7339 ft | 103 kts | 104° |
| 2026-04-22 22:59 | 28.66673 | -106.87128 | 7407 ft | 95 kts | 138° |
| 2026-04-22 22:59 | 28.66093 | -106.86841 | 7432 ft | 94 kts | 175° |
| 2026-04-22 23:00 | 28.65478 | -106.86937 | 7409 ft | 84 kts | 218° |
| 2026-04-22 23:00 | 28.65354 | -106.87547 | 7188 ft | 91 kts | 285° |
| 2026-04-22 23:00 | 28.65553 | -106.88270 | 6853 ft | 99 kts | 280° |
| 2026-04-22 23:00 | 28.65579 | -106.88959 | 6643 ft | 78 kts | 270° |
| 2026-04-22 23:01 | 28.65586 | -106.89527 | 6551 ft | 66 kts | 271° |
| 2026-04-22 23:01 | 28.65585 | -106.89980 | 6529 ft | 47 kts | 270° |
| 2026-04-22 23:01 | 28.65585 | -106.90368 | 6526 ft | 61 kts | 270° |
| 2026-04-22 23:01 | 28.65586 | -106.90913 | 6591 ft | 74 kts | 271° |
| 2026-04-22 23:02 | 28.65593 | -106.91485 | 6739 ft | 72 kts | 271° |
| 2026-04-22 23:02 | 28.65581 | -106.92047 | 6875 ft | 69 kts | 271° |
| 2026-04-22 23:02 | 28.65647 | -106.92594 | 6972 ft | 76 kts | 299° |
| 2026-04-22 23:02 | 28.66115 | -106.92814 | 7091 ft | 82 kts | 12° |
| 2026-04-22 23:03 | 28.66666 | -106.92647 | 7184 ft | 86 kts | 8° |
| 2026-04-22 23:03 | 28.67245 | -106.92515 | 7307 ft | 87 kts | 9° |
| 2026-04-22 23:03 | 28.67852 | -106.92384 | 7417 ft | 89 kts | 4° |
| 2026-04-22 23:03 | 28.68390 | -106.92017 | 7469 ft | 100 kts | 62° |
| 2026-04-22 23:04 | 28.68390 | -106.91223 | 7484 ft | 107 kts | 102° |
| 2026-04-22 23:04 | 28.68270 | -106.90360 | 7523 ft | 112 kts | 98° |
| 2026-04-22 23:04 | 28.68136 | -106.89441 | 7503 ft | 120 kts | 101° |
| 2026-04-22 23:04 | 28.67987 | -106.88508 | 7469 ft | 122 kts | 98° |
| 2026-04-22 23:05 | 28.67923 | -106.87543 | 7437 ft | 123 kts | 95° |
| 2026-04-22 23:05 | 28.67847 | -106.86579 | 7425 ft | 121 kts | 96° |
| 2026-04-22 23:05 | 28.67752 | -106.85627 | 7401 ft | 119 kts | 104° |
| 2026-04-22 23:05 | 28.67268 | -106.84930 | 7328 ft | 118 kts | 158° |
| 2026-04-22 23:06 | 28.66529 | -106.84828 | 7321 ft | 104 kts | 184° |
| 2026-04-22 23:06 | 28.65788 | -106.84844 | 7185 ft | 109 kts | 184° |
| 2026-04-22 23:06 | 28.65156 | -106.85139 | 7071 ft | 95 kts | 234° |
| 2026-04-22 23:06 | 28.64949 | -106.85831 | 6922 ft | 93 kts | 280° |
| 2026-04-22 23:07 | 28.65211 | -106.86503 | 6810 ft | 91 kts | 293° |
| 2026-04-22 23:07 | 28.65440 | -106.87183 | 6758 ft | 93 kts | 288° |
| 2026-04-22 23:07 | 28.65581 | -106.87881 | 6731 ft | 89 kts | 276° |
| 2026-04-22 23:07 | 28.65588 | -106.88554 | 6660 ft | 81 kts | 270° |
| 2026-04-22 23:08 | 28.65585 | -106.89186 | 6584 ft | 79 kts | 270° |
| 2026-04-22 23:08 | 28.65584 | -106.89781 | 6529 ft | 60 kts | 270° |
| 2026-04-22 23:08 | 28.65584 | -106.89941 | 6529 ft | 5 kts | 270° |
| 2026-04-22 23:08 | 28.65584 | -106.90051 | 6529 ft | 22 kts | 271° |
| 2026-04-22 23:09 | 28.65584 | -106.90302 | 6525 ft | 41 kts | 270° |
| 2026-04-22 23:09 | 28.65540 | -106.90605 | 6531 ft | 34 kts | 234° |
| 2026-04-22 23:09 | 28.65558 | -106.90791 | 6531 ft | 21 kts | 284° |
| 2026-04-22 23:09 | 28.65555 | -106.90821 | 6532 ft | 0 kts | 246° |